sensor_id;sensor_type;location;lat;lon;timestamp;P1;durP1;ratioP1;P2;durP2;ratioP2
17997;SDS011;9124;48.144;17.098;2022-08-11T00:01:43;3.00;;;2.63;;
17997;SDS011;9124;48.144;17.098;2022-08-11T00:05:21;4.55;;;2.13;;
17997;SDS011;9124;48.144;17.098;2022-08-11T00:08:58;3.70;;;2.05;;
17997;SDS011;9124;48.144;17.098;2022-08-11T00:12:38;2.60;;;2.40;;
17997;SDS011;9124;48.144;17.098;2022-08-11T00:16:19;2.33;;;2.00;;
17997;SDS011;9124;48.144;17.098;2022-08-11T00:20:03;2.35;;;2.15;;
17997;SDS011;9124;48.144;17.098;2022-08-11T00:23:46;2.50;;;2.30;;
17997;SDS011;9124;48.144;17.098;2022-08-11T00:27:33;4.35;;;2.70;;
17997;SDS011;9124;48.144;17.098;2022-08-11T00:31:23;3.05;;;2.72;;
17997;SDS011;9124;48.144;17.098;2022-08-11T00:35:10;4.95;;;2.35;;
17997;SDS011;9124;48.144;17.098;2022-08-11T00:38:51;8.98;;;3.00;;
17997;SDS011;9124;48.144;17.098;2022-08-11T00:46:36;3.70;;;3.28;;
17997;SDS011;9124;48.144;17.098;2022-08-11T00:54:35;2.70;;;2.58;;
17997;SDS011;9124;48.144;17.098;2022-08-11T00:58:35;2.90;;;2.60;;
17997;SDS011;9124;48.144;17.098;2022-08-11T01:07:28;5.97;;;2.28;;
17997;SDS011;9124;48.144;17.098;2022-08-11T01:47:44;3.33;;;2.35;;
17997;SDS011;9124;48.144;17.098;2022-08-11T02:00:19;2.60;;;2.40;;
17997;SDS011;9124;48.144;17.098;2022-08-11T02:08:33;6.68;;;2.88;;
17997;SDS011;9124;48.144;17.098;2022-08-11T02:12:02;2.83;;;2.63;;
17997;SDS011;9124;48.144;17.098;2022-08-11T02:16:11;2.75;;;2.55;;
17997;SDS011;9124;48.144;17.098;2022-08-11T02:20:09;3.95;;;3.20;;
17997;SDS011;9124;48.144;17.098;2022-08-11T02:24:23;2.80;;;2.50;;
17997;SDS011;9124;48.144;17.098;2022-08-11T02:28:18;2.90;;;2.70;;
17997;SDS011;9124;48.144;17.098;2022-08-11T02:32:46;2.45;;;2.33;;
17997;SDS011;9124;48.144;17.098;2022-08-11T02:41:14;2.88;;;2.70;;
17997;SDS011;9124;48.144;17.098;2022-08-11T02:49:25;2.88;;;2.38;;
17997;SDS011;9124;48.144;17.098;2022-08-11T02:53:50;3.13;;;2.78;;
17997;SDS011;9124;48.144;17.098;2022-08-11T02:57:42;2.47;;;2.28;;
17997;SDS011;9124;48.144;17.098;2022-08-11T03:01:40;3.22;;;2.75;;
17997;SDS011;9124;48.144;17.098;2022-08-11T03:10:10;3.80;;;2.53;;
17997;SDS011;9124;48.144;17.098;2022-08-11T03:18:11;2.60;;;1.90;;
17997;SDS011;9124;48.144;17.098;2022-08-11T03:25:50;3.28;;;2.35;;
17997;SDS011;9124;48.144;17.098;2022-08-11T03:30:05;2.65;;;2.45;;
17997;SDS011;9124;48.144;17.098;2022-08-11T03:33:59;2.17;;;2.08;;
17997;SDS011;9124;48.144;17.098;2022-08-11T03:37:54;7.38;;;2.42;;
17997;SDS011;9124;48.144;17.098;2022-08-11T04:57:27;5.00;;;3.63;;
17997;SDS011;9124;48.144;17.098;2022-08-11T05:06:06;6.30;;;3.42;;
17997;SDS011;9124;48.144;17.098;2022-08-11T05:14:19;7.72;;;3.72;;
17997;SDS011;9124;48.144;17.098;2022-08-11T05:18:23;13.32;;;3.95;;
17997;SDS011;9124;48.144;17.098;2022-08-11T05:22:28;9.52;;;3.33;;
17997;SDS011;9124;48.144;17.098;2022-08-11T05:26:24;4.88;;;3.97;;
17997;SDS011;9124;48.144;17.098;2022-08-11T05:34:45;5.13;;;2.60;;
17997;SDS011;9124;48.144;17.098;2022-08-11T05:38:35;8.63;;;3.45;;
17997;SDS011;9124;48.144;17.098;2022-08-11T05:42:31;10.00;;;3.17;;
17997;SDS011;9124;48.144;17.098;2022-08-11T05:46:29;14.13;;;3.28;;
17997;SDS011;9124;48.144;17.098;2022-08-11T05:50:35;5.22;;;2.83;;
17997;SDS011;9124;48.144;17.098;2022-08-11T05:54:33;6.63;;;2.42;;
17997;SDS011;9124;48.144;17.098;2022-08-11T05:58:32;4.75;;;2.47;;
17997;SDS011;9124;48.144;17.098;2022-08-11T06:02:17;4.68;;;2.10;;
17997;SDS011;9124;48.144;17.098;2022-08-11T06:05:54;5.10;;;2.05;;
17997;SDS011;9124;48.144;17.098;2022-08-11T06:13:23;6.85;;;2.45;;
17997;SDS011;9124;48.144;17.098;2022-08-11T06:17:03;5.60;;;3.60;;
17997;SDS011;9124;48.144;17.098;2022-08-11T06:20:51;6.35;;;2.70;;
17997;SDS011;9124;48.144;17.098;2022-08-11T06:24:30;13.95;;;3.25;;
17997;SDS011;9124;48.144;17.098;2022-08-11T06:28:08;4.35;;;2.67;;
17997;SDS011;9124;48.144;17.098;2022-08-11T06:31:50;2.40;;;2.20;;
17997;SDS011;9124;48.144;17.098;2022-08-11T06:43:20;8.38;;;2.50;;
17997;SDS011;9124;48.144;17.098;2022-08-11T06:47:04;7.60;;;2.78;;
17997;SDS011;9124;48.144;17.098;2022-08-11T06:50:49;11.68;;;2.55;;
17997;SDS011;9124;48.144;17.098;2022-08-11T06:54:49;6.28;;;2.35;;
17997;SDS011;9124;48.144;17.098;2022-08-11T06:58:33;4.00;;;3.10;;
17997;SDS011;9124;48.144;17.098;2022-08-11T07:02:32;4.15;;;3.00;;
17997;SDS011;9124;48.144;17.098;2022-08-11T07:06:22;4.50;;;2.70;;
17997;SDS011;9124;48.144;17.098;2022-08-11T07:14:42;5.70;;;2.75;;
17997;SDS011;9124;48.144;17.098;2022-08-11T07:18:43;7.57;;;2.90;;
17997;SDS011;9124;48.144;17.098;2022-08-11T07:22:55;3.38;;;2.50;;
17997;SDS011;9124;48.144;17.098;2022-08-11T07:26:55;3.63;;;2.95;;
17997;SDS011;9124;48.144;17.098;2022-08-11T07:30:52;3.80;;;2.80;;
17997;SDS011;9124;48.144;17.098;2022-08-11T07:34:36;6.53;;;2.90;;
17997;SDS011;9124;48.144;17.098;2022-08-11T07:38:22;6.90;;;2.58;;
17997;SDS011;9124;48.144;17.098;2022-08-11T07:42:20;3.30;;;2.55;;
17997;SDS011;9124;48.144;17.098;2022-08-11T07:46:02;13.07;;;2.80;;
17997;SDS011;9124;48.144;17.098;2022-08-11T07:50:00;6.50;;;2.38;;
17997;SDS011;9124;48.144;17.098;2022-08-11T07:53:55;4.00;;;2.30;;
17997;SDS011;9124;48.144;17.098;2022-08-11T07:57:32;3.70;;;2.33;;
17997;SDS011;9124;48.144;17.098;2022-08-11T08:01:28;6.13;;;2.53;;
17997;SDS011;9124;48.144;17.098;2022-08-11T08:05:26;3.63;;;2.22;;
17997;SDS011;9124;48.144;17.098;2022-08-11T08:09:22;8.23;;;2.33;;
17997;SDS011;9124;48.144;17.098;2022-08-11T08:13:18;4.20;;;2.55;;
17997;SDS011;9124;48.144;17.098;2022-08-11T08:17:14;2.65;;;2.40;;
17997;SDS011;9124;48.144;17.098;2022-08-11T08:21:10;2.70;;;2.13;;
17997;SDS011;9124;48.144;17.098;2022-08-11T08:24:47;3.97;;;2.33;;
17997;SDS011;9124;48.144;17.098;2022-08-11T08:28:24;4.80;;;1.92;;
17997;SDS011;9124;48.144;17.098;2022-08-11T08:32:02;3.40;;;2.35;;
17997;SDS011;9124;48.144;17.098;2022-08-11T08:35:40;4.75;;;2.30;;
17997;SDS011;9124;48.144;17.098;2022-08-11T08:39:20;2.75;;;2.13;;
17997;SDS011;9124;48.144;17.098;2022-08-11T08:42:58;4.20;;;2.00;;
17997;SDS011;9124;48.144;17.098;2022-08-11T08:46:47;4.90;;;2.20;;
17997;SDS011;9124;48.144;17.098;2022-08-11T08:50:26;3.72;;;2.00;;
17997;SDS011;9124;48.144;17.098;2022-08-11T08:54:31;3.78;;;2.10;;
17997;SDS011;9124;48.144;17.098;2022-08-11T08:58:12;6.60;;;1.92;;
17997;SDS011;9124;48.144;17.098;2022-08-11T09:01:56;3.10;;;2.40;;
17997;SDS011;9124;48.144;17.098;2022-08-11T09:05:38;2.45;;;2.05;;
17997;SDS011;9124;48.144;17.098;2022-08-11T09:09:16;7.75;;;2.97;;
17997;SDS011;9124;48.144;17.098;2022-08-11T09:12:53;4.80;;;2.47;;
17997;SDS011;9124;48.144;17.098;2022-08-11T09:16:30;3.70;;;2.00;;
17997;SDS011;9124;48.144;17.098;2022-08-11T09:20:09;5.18;;;2.60;;
17997;SDS011;9124;48.144;17.098;2022-08-11T09:23:52;10.75;;;2.75;;
17997;SDS011;9124;48.144;17.098;2022-08-11T09:27:49;5.28;;;2.88;;
17997;SDS011;9124;48.144;17.098;2022-08-11T09:31:31;4.43;;;2.20;;
17997;SDS011;9124;48.144;17.098;2022-08-11T09:35:08;1.98;;;1.77;;
17997;SDS011;9124;48.144;17.098;2022-08-11T09:38:46;2.25;;;1.50;;
17997;SDS011;9124;48.144;17.098;2022-08-11T09:42:44;2.40;;;2.20;;
17997;SDS011;9124;48.144;17.098;2022-08-11T09:46:41;3.45;;;1.80;;
17997;SDS011;9124;48.144;17.098;2022-08-11T09:50:19;4.85;;;2.10;;
17997;SDS011;9124;48.144;17.098;2022-08-11T09:54:01;5.43;;;1.85;;
17997;SDS011;9124;48.144;17.098;2022-08-11T09:57:45;3.95;;;1.98;;
17997;SDS011;9124;48.144;17.098;2022-08-11T10:01:46;1.90;;;1.80;;
17997;SDS011;9124;48.144;17.098;2022-08-11T10:05:30;4.65;;;1.92;;
17997;SDS011;9124;48.144;17.098;2022-08-11T10:09:27;1.90;;;1.80;;
17997;SDS011;9124;48.144;17.098;2022-08-11T10:13:17;2.38;;;1.63;;
17997;SDS011;9124;48.144;17.098;2022-08-11T10:16:57;4.82;;;2.28;;
17997;SDS011;9124;48.144;17.098;2022-08-11T10:20:37;3.47;;;1.90;;
17997;SDS011;9124;48.144;17.098;2022-08-11T10:24:15;8.55;;;2.05;;
17997;SDS011;9124;48.144;17.098;2022-08-11T10:28:11;4.43;;;2.60;;
17997;SDS011;9124;48.144;17.098;2022-08-11T10:31:48;6.95;;;2.30;;
17997;SDS011;9124;48.144;17.098;2022-08-11T10:35:44;9.02;;;2.30;;
17997;SDS011;9124;48.144;17.098;2022-08-11T10:39:21;4.30;;;2.25;;
17997;SDS011;9124;48.144;17.098;2022-08-11T10:42:59;4.30;;;2.05;;
17997;SDS011;9124;48.144;17.098;2022-08-11T10:46:48;6.43;;;2.38;;
17997;SDS011;9124;48.144;17.098;2022-08-11T10:50:46;2.78;;;2.28;;
17997;SDS011;9124;48.144;17.098;2022-08-11T10:54:43;2.80;;;2.60;;
17997;SDS011;9124;48.144;17.098;2022-08-11T10:58:38;4.45;;;2.13;;
17997;SDS011;9124;48.144;17.098;2022-08-11T11:02:23;5.80;;;2.08;;
17997;SDS011;9124;48.144;17.098;2022-08-11T11:10:06;2.90;;;1.90;;
17997;SDS011;9124;48.144;17.098;2022-08-11T11:13:48;2.50;;;2.10;;
17997;SDS011;9124;48.144;17.098;2022-08-11T11:17:53;7.10;;;1.88;;
17997;SDS011;9124;48.144;17.098;2022-08-11T11:21:39;5.78;;;1.92;;
17997;SDS011;9124;48.144;17.098;2022-08-11T11:26:03;2.03;;;1.90;;
17997;SDS011;9124;48.144;17.098;2022-08-11T11:33:42;4.22;;;2.25;;
17997;SDS011;9124;48.144;17.098;2022-08-11T11:37:42;2.08;;;1.60;;
17997;SDS011;9124;48.144;17.098;2022-08-11T11:41:22;1.92;;;1.70;;
17997;SDS011;9124;48.144;17.098;2022-08-11T11:45:01;2.08;;;1.90;;
17997;SDS011;9124;48.144;17.098;2022-08-11T11:48:40;4.05;;;2.05;;
17997;SDS011;9124;48.144;17.098;2022-08-11T11:52:19;1.70;;;1.60;;
17997;SDS011;9124;48.144;17.098;2022-08-11T11:55:57;4.43;;;1.55;;
17997;SDS011;9124;48.144;17.098;2022-08-11T11:59:35;6.22;;;1.63;;
17997;SDS011;9124;48.144;17.098;2022-08-11T12:03:31;1.77;;;1.55;;
17997;SDS011;9124;48.144;17.098;2022-08-11T12:07:10;4.97;;;2.22;;
17997;SDS011;9124;48.144;17.098;2022-08-11T12:11:08;3.00;;;1.70;;
17997;SDS011;9124;48.144;17.098;2022-08-11T12:15:05;1.50;;;1.40;;
17997;SDS011;9124;48.144;17.098;2022-08-11T12:18:48;3.25;;;1.83;;
17997;SDS011;9124;48.144;17.098;2022-08-11T12:22:28;1.88;;;1.73;;
17997;SDS011;9124;48.144;17.098;2022-08-11T12:26:24;2.10;;;1.92;;
17997;SDS011;9124;48.144;17.098;2022-08-11T12:30:20;1.60;;;1.48;;
17997;SDS011;9124;48.144;17.098;2022-08-11T12:34:08;2.45;;;1.80;;
17997;SDS011;9124;48.144;17.098;2022-08-11T12:37:48;4.03;;;1.63;;
17997;SDS011;9124;48.144;17.098;2022-08-11T12:41:30;1.50;;;1.40;;
17997;SDS011;9124;48.144;17.098;2022-08-11T12:45:28;1.90;;;1.80;;
17997;SDS011;9124;48.144;17.098;2022-08-11T12:49:11;1.88;;;1.77;;
17997;SDS011;9124;48.144;17.098;2022-08-11T12:53:08;3.65;;;1.98;;
17997;SDS011;9124;48.144;17.098;2022-08-11T12:56:49;1.75;;;1.65;;
17997;SDS011;9124;48.144;17.098;2022-08-11T13:00:52;1.63;;;1.52;;
17997;SDS011;9124;48.144;17.098;2022-08-11T13:04:48;1.42;;;1.33;;
17997;SDS011;9124;48.144;17.098;2022-08-11T13:08:35;2.25;;;1.60;;
17997;SDS011;9124;48.144;17.098;2022-08-11T13:12:14;1.63;;;1.52;;
17997;SDS011;9124;48.144;17.098;2022-08-11T13:16:10;1.30;;;1.20;;
17997;SDS011;9124;48.144;17.098;2022-08-11T13:19:50;1.77;;;1.63;;
17997;SDS011;9124;48.144;17.098;2022-08-11T13:23:29;1.92;;;1.65;;
17997;SDS011;9124;48.144;17.098;2022-08-11T13:27:06;1.73;;;1.58;;
17997;SDS011;9124;48.144;17.098;2022-08-11T13:30:44;3.67;;;1.23;;
17997;SDS011;9124;48.144;17.098;2022-08-11T13:34:39;2.35;;;1.73;;
17997;SDS011;9124;48.144;17.098;2022-08-11T13:38:19;1.70;;;1.60;;
17997;SDS011;9124;48.144;17.098;2022-08-11T13:41:59;3.97;;;1.70;;
17997;SDS011;9124;48.144;17.098;2022-08-11T13:45:38;1.77;;;1.67;;
17997;SDS011;9124;48.144;17.098;2022-08-11T13:49:15;2.92;;;1.80;;
17997;SDS011;9124;48.144;17.098;2022-08-11T13:52:53;4.95;;;1.70;;
17997;SDS011;9124;48.144;17.098;2022-08-11T13:56:30;1.95;;;1.85;;
17997;SDS011;9124;48.144;17.098;2022-08-11T14:00:10;2.88;;;1.48;;
17997;SDS011;9124;48.144;17.098;2022-08-11T14:03:48;1.83;;;1.70;;
17997;SDS011;9124;48.144;17.098;2022-08-11T14:07:28;3.97;;;1.50;;
17997;SDS011;9124;48.144;17.098;2022-08-11T14:11:11;3.97;;;1.60;;
17997;SDS011;9124;48.144;17.098;2022-08-11T14:15:13;2.28;;;1.58;;
17997;SDS011;9124;48.144;17.098;2022-08-11T14:19:00;2.50;;;1.65;;
17997;SDS011;9124;48.144;17.098;2022-08-11T14:22:40;4.03;;;1.50;;
17997;SDS011;9124;48.144;17.098;2022-08-11T14:26:21;3.00;;;1.50;;
17997;SDS011;9124;48.144;17.098;2022-08-11T14:29:58;3.20;;;2.03;;
17997;SDS011;9124;48.144;17.098;2022-08-11T14:33:37;4.75;;;2.25;;
17997;SDS011;9124;48.144;17.098;2022-08-11T14:37:18;2.47;;;1.42;;
17997;SDS011;9124;48.144;17.098;2022-08-11T14:40:57;3.63;;;1.73;;
17997;SDS011;9124;48.144;17.098;2022-08-11T14:44:55;4.60;;;1.77;;
17997;SDS011;9124;48.144;17.098;2022-08-11T14:48:58;3.28;;;1.70;;
17997;SDS011;9124;48.144;17.098;2022-08-11T14:52:36;3.10;;;1.38;;
17997;SDS011;9124;48.144;17.098;2022-08-11T14:56:14;1.98;;;1.58;;
17997;SDS011;9124;48.144;17.098;2022-08-11T15:00:09;1.40;;;1.30;;
17997;SDS011;9124;48.144;17.098;2022-08-11T15:03:57;3.97;;;1.42;;
17997;SDS011;9124;48.144;17.098;2022-08-11T15:07:35;6.43;;;1.98;;
17997;SDS011;9124;48.144;17.098;2022-08-11T15:11:13;2.58;;;1.63;;
17997;SDS011;9124;48.144;17.098;2022-08-11T15:15:10;2.28;;;2.00;;
17997;SDS011;9124;48.144;17.098;2022-08-11T15:19:07;1.65;;;1.55;;
17997;SDS011;9124;48.144;17.098;2022-08-11T15:22:45;4.15;;;1.73;;
17997;SDS011;9124;48.144;17.098;2022-08-11T15:26:40;2.08;;;1.60;;
17997;SDS011;9124;48.144;17.098;2022-08-11T15:30:36;1.75;;;1.40;;
17997;SDS011;9124;48.144;17.098;2022-08-11T15:34:31;3.35;;;1.73;;
17997;SDS011;9124;48.144;17.098;2022-08-11T15:38:26;2.83;;;1.55;;
17997;SDS011;9124;48.144;17.098;2022-08-11T15:42:14;1.98;;;1.42;;
17997;SDS011;9124;48.144;17.098;2022-08-11T15:46:13;5.60;;;1.70;;
17997;SDS011;9124;48.144;17.098;2022-08-11T15:49:58;3.08;;;1.70;;
17997;SDS011;9124;48.144;17.098;2022-08-11T15:53:42;4.13;;;1.80;;
17997;SDS011;9124;48.144;17.098;2022-08-11T15:57:24;6.72;;;1.73;;
17997;SDS011;9124;48.144;17.098;2022-08-11T16:01:20;2.38;;;1.48;;
17997;SDS011;9124;48.144;17.098;2022-08-11T16:05:18;2.42;;;1.67;;
17997;SDS011;9124;48.144;17.098;2022-08-11T16:08:57;1.63;;;1.50;;
17997;SDS011;9124;48.144;17.098;2022-08-11T16:12:42;7.97;;;1.67;;
17997;SDS011;9124;48.144;17.098;2022-08-11T16:16:40;3.60;;;1.70;;
17997;SDS011;9124;48.144;17.098;2022-08-11T16:20:24;1.60;;;1.50;;
17997;SDS011;9124;48.144;17.098;2022-08-11T16:24:08;3.15;;;1.48;;
17997;SDS011;9124;48.144;17.098;2022-08-11T16:27:57;3.70;;;1.77;;
17997;SDS011;9124;48.144;17.098;2022-08-11T16:31:40;4.07;;;1.40;;
17997;SDS011;9124;48.144;17.098;2022-08-11T16:35:37;1.88;;;1.52;;
17997;SDS011;9124;48.144;17.098;2022-08-11T16:39:51;3.28;;;1.73;;
17997;SDS011;9124;48.144;17.098;2022-08-11T16:43:28;3.80;;;1.80;;
17997;SDS011;9124;48.144;17.098;2022-08-11T16:47:25;1.50;;;1.40;;
17997;SDS011;9124;48.144;17.098;2022-08-11T16:51:03;4.10;;;1.83;;
17997;SDS011;9124;48.144;17.098;2022-08-11T16:54:41;2.80;;;1.50;;
17997;SDS011;9124;48.144;17.098;2022-08-11T16:58:19;1.40;;;1.40;;
17997;SDS011;9124;48.144;17.098;2022-08-11T17:02:17;1.88;;;1.65;;
17997;SDS011;9124;48.144;17.098;2022-08-11T17:06:16;4.57;;;1.52;;
17997;SDS011;9124;48.144;17.098;2022-08-11T17:14:40;2.08;;;1.70;;
17997;SDS011;9124;48.144;17.098;2022-08-11T17:18:24;3.38;;;1.70;;
17997;SDS011;9124;48.144;17.098;2022-08-11T17:22:17;4.13;;;1.90;;
17997;SDS011;9124;48.144;17.098;2022-08-11T17:26:18;2.70;;;1.60;;
17997;SDS011;9124;48.144;17.098;2022-08-11T17:29:57;1.80;;;1.50;;
17997;SDS011;9124;48.144;17.098;2022-08-11T17:33:36;1.88;;;1.48;;
17997;SDS011;9124;48.144;17.098;2022-08-11T17:37:32;1.67;;;1.58;;
17997;SDS011;9124;48.144;17.098;2022-08-11T17:41:11;3.90;;;1.90;;
17997;SDS011;9124;48.144;17.098;2022-08-11T17:45:08;7.22;;;1.63;;
17997;SDS011;9124;48.144;17.098;2022-08-11T17:49:05;3.50;;;1.73;;
17997;SDS011;9124;48.144;17.098;2022-08-11T17:52:45;1.80;;;1.70;;
17997;SDS011;9124;48.144;17.098;2022-08-11T17:56:42;3.30;;;1.30;;
17997;SDS011;9124;48.144;17.098;2022-08-11T18:00:37;1.27;;;1.27;;
17997;SDS011;9124;48.144;17.098;2022-08-11T18:04:15;3.58;;;1.50;;
17997;SDS011;9124;48.144;17.098;2022-08-11T18:07:54;1.83;;;1.73;;
17997;SDS011;9124;48.144;17.098;2022-08-11T18:11:54;2.72;;;1.67;;
17997;SDS011;9124;48.144;17.098;2022-08-11T18:15:50;1.80;;;1.70;;
17997;SDS011;9124;48.144;17.098;2022-08-11T18:19:45;6.10;;;1.98;;
17997;SDS011;9124;48.144;17.098;2022-08-11T18:23:40;1.52;;;1.42;;
17997;SDS011;9124;48.144;17.098;2022-08-11T18:27:37;1.60;;;1.48;;
17997;SDS011;9124;48.144;17.098;2022-08-11T18:31:37;2.83;;;1.42;;
17997;SDS011;9124;48.144;17.098;2022-08-11T18:35:41;2.53;;;1.60;;
17997;SDS011;9124;48.144;17.098;2022-08-11T18:39:41;5.07;;;1.73;;
17997;SDS011;9124;48.144;17.098;2022-08-11T18:43:42;3.50;;;1.70;;
17997;SDS011;9124;48.144;17.098;2022-08-11T18:47:41;1.70;;;1.60;;
17997;SDS011;9124;48.144;17.098;2022-08-11T18:51:39;3.78;;;2.05;;
17997;SDS011;9124;48.144;17.098;2022-08-11T18:55:38;2.42;;;1.70;;
17997;SDS011;9124;48.144;17.098;2022-08-11T18:59:37;2.50;;;1.60;;
17997;SDS011;9124;48.144;17.098;2022-08-11T19:03:35;3.53;;;1.77;;
17997;SDS011;9124;48.144;17.098;2022-08-11T19:07:32;1.98;;;1.70;;
17997;SDS011;9124;48.144;17.098;2022-08-11T19:11:28;2.45;;;1.83;;
17997;SDS011;9124;48.144;17.098;2022-08-11T19:15:25;3.80;;;1.73;;
17997;SDS011;9124;48.144;17.098;2022-08-11T19:19:21;2.53;;;1.55;;
17997;SDS011;9124;48.144;17.098;2022-08-11T19:23:19;5.93;;;1.90;;
17997;SDS011;9124;48.144;17.098;2022-08-11T19:27:23;2.95;;;2.25;;
17997;SDS011;9124;48.144;17.098;2022-08-11T19:31:21;3.10;;;1.80;;
17997;SDS011;9124;48.144;17.098;2022-08-11T19:35:18;2.22;;;2.03;;
17997;SDS011;9124;48.144;17.098;2022-08-11T19:39:14;4.03;;;2.00;;
17997;SDS011;9124;48.144;17.098;2022-08-11T19:43:10;2.67;;;1.75;;
17997;SDS011;9124;48.144;17.098;2022-08-11T19:47:07;1.73;;;1.40;;
17997;SDS011;9124;48.144;17.098;2022-08-11T19:51:03;5.97;;;1.60;;
17997;SDS011;9124;48.144;17.098;2022-08-11T19:55:00;2.80;;;1.50;;
17997;SDS011;9124;48.144;17.098;2022-08-11T19:58:57;3.28;;;1.90;;
17997;SDS011;9124;48.144;17.098;2022-08-11T20:02:53;7.22;;;1.90;;
17997;SDS011;9124;48.144;17.098;2022-08-11T20:06:48;2.40;;;1.65;;
17997;SDS011;9124;48.144;17.098;2022-08-11T20:10:47;2.45;;;1.80;;
17997;SDS011;9124;48.144;17.098;2022-08-11T20:14:43;3.35;;;2.00;;
17997;SDS011;9124;48.144;17.098;2022-08-11T20:18:41;1.70;;;1.60;;
17997;SDS011;9124;48.144;17.098;2022-08-11T20:22:39;2.50;;;1.58;;
17997;SDS011;9124;48.144;17.098;2022-08-11T20:26:35;2.85;;;1.85;;
17997;SDS011;9124;48.144;17.098;2022-08-11T20:30:30;1.50;;;1.45;;
17997;SDS011;9124;48.144;17.098;2022-08-11T20:34:26;3.75;;;1.60;;
17997;SDS011;9124;48.144;17.098;2022-08-11T20:38:24;4.00;;;2.00;;
17997;SDS011;9124;48.144;17.098;2022-08-11T20:42:25;2.80;;;1.42;;
17997;SDS011;9124;48.144;17.098;2022-08-11T20:46:22;2.25;;;1.80;;
17997;SDS011;9124;48.144;17.098;2022-08-11T20:50:21;3.88;;;1.42;;
17997;SDS011;9124;48.144;17.098;2022-08-11T20:54:17;1.50;;;1.40;;
17997;SDS011;9124;48.144;17.098;2022-08-11T20:58:14;1.88;;;1.67;;
17997;SDS011;9124;48.144;17.098;2022-08-11T21:02:10;1.58;;;1.35;;
17997;SDS011;9124;48.144;17.098;2022-08-11T21:06:07;3.47;;;1.52;;
17997;SDS011;9124;48.144;17.098;2022-08-11T21:10:04;2.70;;;1.52;;
17997;SDS011;9124;48.144;17.098;2022-08-11T21:14:02;5.22;;;2.00;;
17997;SDS011;9124;48.144;17.098;2022-08-11T21:18:01;6.70;;;1.90;;
17997;SDS011;9124;48.144;17.098;2022-08-11T21:21:59;1.63;;;1.45;;
17997;SDS011;9124;48.144;17.098;2022-08-11T21:25:58;4.00;;;1.40;;
17997;SDS011;9124;48.144;17.098;2022-08-11T21:30:01;2.83;;;1.40;;
17997;SDS011;9124;48.144;17.098;2022-08-11T21:33:57;2.33;;;1.45;;
17997;SDS011;9124;48.144;17.098;2022-08-11T21:37:52;1.67;;;1.50;;
17997;SDS011;9124;48.144;17.098;2022-08-11T21:41:49;2.30;;;1.90;;
17997;SDS011;9124;48.144;17.098;2022-08-11T21:45:45;1.55;;;1.45;;
17997;SDS011;9124;48.144;17.098;2022-08-11T21:49:43;2.67;;;1.98;;
17997;SDS011;9124;48.144;17.098;2022-08-11T21:53:38;2.42;;;1.85;;
17997;SDS011;9124;48.144;17.098;2022-08-11T21:57:34;3.10;;;1.50;;
17997;SDS011;9124;48.144;17.098;2022-08-11T22:01:32;3.75;;;1.90;;
17997;SDS011;9124;48.144;17.098;2022-08-11T22:05:28;3.60;;;1.30;;
17997;SDS011;9124;48.144;17.098;2022-08-11T22:09:26;4.05;;;1.23;;
17997;SDS011;9124;48.144;17.098;2022-08-11T22:13:22;1.73;;;1.20;;
17997;SDS011;9124;48.144;17.098;2022-08-11T22:17:17;8.52;;;1.73;;
17997;SDS011;9124;48.144;17.098;2022-08-11T22:21:12;2.28;;;1.70;;
17997;SDS011;9124;48.144;17.098;2022-08-11T22:25:08;1.58;;;0.98;;
17997;SDS011;9124;48.144;17.098;2022-08-11T22:29:06;4.72;;;1.23;;
17997;SDS011;9124;48.144;17.098;2022-08-11T22:33:04;1.60;;;1.50;;
17997;SDS011;9124;48.144;17.098;2022-08-11T22:37:00;2.00;;;1.40;;
17997;SDS011;9124;48.144;17.098;2022-08-11T22:40:56;2.00;;;1.73;;
17997;SDS011;9124;48.144;17.098;2022-08-11T22:44:51;2.10;;;1.40;;
17997;SDS011;9124;48.144;17.098;2022-08-11T22:48:47;2.22;;;1.33;;
17997;SDS011;9124;48.144;17.098;2022-08-11T22:52:42;2.85;;;1.50;;
17997;SDS011;9124;48.144;17.098;2022-08-11T22:56:40;1.73;;;1.63;;
17997;SDS011;9124;48.144;17.098;2022-08-11T23:00:35;3.13;;;1.40;;
17997;SDS011;9124;48.144;17.098;2022-08-11T23:04:32;1.58;;;1.48;;
17997;SDS011;9124;48.144;17.098;2022-08-11T23:08:27;1.80;;;1.55;;
17997;SDS011;9124;48.144;17.098;2022-08-11T23:12:23;1.92;;;1.60;;
17997;SDS011;9124;48.144;17.098;2022-08-11T23:16:18;1.60;;;1.50;;
17997;SDS011;9124;48.144;17.098;2022-08-11T23:20:15;4.45;;;1.73;;
17997;SDS011;9124;48.144;17.098;2022-08-11T23:24:10;2.00;;;1.45;;
17997;SDS011;9124;48.144;17.098;2022-08-11T23:28:07;1.30;;;1.30;;
17997;SDS011;9124;48.144;17.098;2022-08-11T23:32:07;1.40;;;1.30;;
17997;SDS011;9124;48.144;17.098;2022-08-11T23:36:02;3.70;;;1.60;;
17997;SDS011;9124;48.144;17.098;2022-08-11T23:39:57;1.83;;;1.73;;
17997;SDS011;9124;48.144;17.098;2022-08-11T23:43:53;2.35;;;1.35;;
17997;SDS011;9124;48.144;17.098;2022-08-11T23:47:49;1.83;;;1.58;;
17997;SDS011;9124;48.144;17.098;2022-08-11T23:51:46;2.30;;;1.80;;
17997;SDS011;9124;48.144;17.098;2022-08-11T23:55:42;1.42;;;1.33;;
17997;SDS011;9124;48.144;17.098;2022-08-11T23:59:37;1.80;;;1.70;;
